sensor_id;sensor_type;location;lat;lon;timestamp;P1;durP1;ratioP1;P2;durP2;ratioP2
6663;SDS011;58749;48.022;10.922;2022-12-18T00:00:05;38.70;;;17.85;;
6663;SDS011;58749;48.022;10.922;2022-12-18T00:02:36;39.05;;;18.77;;
6663;SDS011;58749;48.022;10.922;2022-12-18T00:05:05;36.90;;;18.10;;
6663;SDS011;58749;48.022;10.922;2022-12-18T00:07:35;36.38;;;16.95;;
6663;SDS011;58749;48.022;10.922;2022-12-18T00:10:04;35.85;;;18.60;;
6663;SDS011;58749;48.022;10.922;2022-12-18T00:12:33;34.20;;;17.40;;
6663;SDS011;58749;48.022;10.922;2022-12-18T00:15:01;36.53;;;18.77;;
6663;SDS011;58749;48.022;10.922;2022-12-18T00:17:30;35.35;;;17.60;;
6663;SDS011;58749;48.022;10.922;2022-12-18T00:19:58;40.80;;;17.45;;
6663;SDS011;58749;48.022;10.922;2022-12-18T00:22:26;37.08;;;17.27;;
6663;SDS011;58749;48.022;10.922;2022-12-18T00:24:55;36.92;;;17.70;;
6663;SDS011;58749;48.022;10.922;2022-12-18T00:27:24;42.20;;;19.52;;
6663;SDS011;58749;48.022;10.922;2022-12-18T00:29:52;39.35;;;19.42;;
6663;SDS011;58749;48.022;10.922;2022-12-18T00:32:19;37.03;;;18.27;;
6663;SDS011;58749;48.022;10.922;2022-12-18T00:34:47;35.40;;;17.63;;
6663;SDS011;58749;48.022;10.922;2022-12-18T00:37:15;35.80;;;17.83;;
6663;SDS011;58749;48.022;10.922;2022-12-18T00:39:47;39.63;;;17.65;;
6663;SDS011;58749;48.022;10.922;2022-12-18T00:42:17;40.45;;;19.30;;
6663;SDS011;58749;48.022;10.922;2022-12-18T00:45:03;40.22;;;17.73;;
6663;SDS011;58749;48.022;10.922;2022-12-18T00:47:38;37.78;;;19.30;;
6663;SDS011;58749;48.022;10.922;2022-12-18T00:50:06;39.35;;;18.92;;
6663;SDS011;58749;48.022;10.922;2022-12-18T00:52:35;35.67;;;16.42;;
6663;SDS011;58749;48.022;10.922;2022-12-18T00:55:03;34.75;;;17.85;;
6663;SDS011;58749;48.022;10.922;2022-12-18T00:57:33;39.15;;;19.45;;
6663;SDS011;58749;48.022;10.922;2022-12-18T01:00:02;37.80;;;17.75;;
6663;SDS011;58749;48.022;10.922;2022-12-18T01:02:31;41.42;;;18.90;;
6663;SDS011;58749;48.022;10.922;2022-12-18T01:04:59;41.17;;;19.30;;
6663;SDS011;58749;48.022;10.922;2022-12-18T01:07:27;42.60;;;19.38;;
6663;SDS011;58749;48.022;10.922;2022-12-18T01:09:55;36.75;;;18.02;;
6663;SDS011;58749;48.022;10.922;2022-12-18T01:12:23;36.45;;;18.42;;
6663;SDS011;58749;48.022;10.922;2022-12-18T01:14:53;36.22;;;17.02;;
6663;SDS011;58749;48.022;10.922;2022-12-18T01:17:21;38.42;;;18.42;;
6663;SDS011;58749;48.022;10.922;2022-12-18T01:19:49;38.38;;;17.40;;
6663;SDS011;58749;48.022;10.922;2022-12-18T01:22:17;36.45;;;17.80;;
6663;SDS011;58749;48.022;10.922;2022-12-18T01:24:45;37.33;;;17.90;;
6663;SDS011;58749;48.022;10.922;2022-12-18T01:27:12;39.25;;;18.90;;
6663;SDS011;58749;48.022;10.922;2022-12-18T01:29:40;35.30;;;17.70;;
6663;SDS011;58749;48.022;10.922;2022-12-18T01:32:10;36.83;;;17.73;;
6663;SDS011;58749;48.022;10.922;2022-12-18T01:34:38;33.53;;;16.70;;
6663;SDS011;58749;48.022;10.922;2022-12-18T01:37:06;41.40;;;18.42;;
6663;SDS011;58749;48.022;10.922;2022-12-18T01:39:34;40.42;;;17.73;;
6663;SDS011;58749;48.022;10.922;2022-12-18T01:42:02;35.83;;;16.50;;
6663;SDS011;58749;48.022;10.922;2022-12-18T01:47:23;34.40;;;16.63;;
6663;SDS011;58749;48.022;10.922;2022-12-18T01:49:53;35.13;;;17.20;;
6663;SDS011;58749;48.022;10.922;2022-12-18T01:52:22;36.05;;;16.35;;
6663;SDS011;58749;48.022;10.922;2022-12-18T01:54:53;32.63;;;16.20;;
6663;SDS011;58749;48.022;10.922;2022-12-18T01:57:23;35.38;;;16.23;;
6663;SDS011;58749;48.022;10.922;2022-12-18T01:59:53;32.70;;;15.82;;
6663;SDS011;58749;48.022;10.922;2022-12-18T02:02:25;29.73;;;14.55;;
6663;SDS011;58749;48.022;10.922;2022-12-18T02:04:55;33.50;;;16.17;;
6663;SDS011;58749;48.022;10.922;2022-12-18T02:07:25;29.15;;;15.27;;
6663;SDS011;58749;48.022;10.922;2022-12-18T02:09:59;32.85;;;16.85;;
6663;SDS011;58749;48.022;10.922;2022-12-18T02:12:34;33.03;;;16.73;;
6663;SDS011;58749;48.022;10.922;2022-12-18T02:15:12;34.20;;;16.00;;
6663;SDS011;58749;48.022;10.922;2022-12-18T02:17:46;36.20;;;17.05;;
6663;SDS011;58749;48.022;10.922;2022-12-18T02:20:20;36.28;;;16.63;;
6663;SDS011;58749;48.022;10.922;2022-12-18T02:23:00;33.03;;;15.85;;
6663;SDS011;58749;48.022;10.922;2022-12-18T02:25:40;34.65;;;16.52;;
6663;SDS011;58749;48.022;10.922;2022-12-18T02:28:42;32.63;;;15.77;;
6663;SDS011;58749;48.022;10.922;2022-12-18T02:31:14;32.10;;;16.65;;
6663;SDS011;58749;48.022;10.922;2022-12-18T02:33:45;31.20;;;15.70;;
6663;SDS011;58749;48.022;10.922;2022-12-18T02:36:14;32.55;;;16.23;;
6663;SDS011;58749;48.022;10.922;2022-12-18T02:38:44;34.80;;;16.95;;
6663;SDS011;58749;48.022;10.922;2022-12-18T02:41:13;31.48;;;16.13;;
6663;SDS011;58749;48.022;10.922;2022-12-18T02:43:47;33.13;;;15.88;;
6663;SDS011;58749;48.022;10.922;2022-12-18T02:46:29;30.87;;;15.80;;
6663;SDS011;58749;48.022;10.922;2022-12-18T02:49:06;31.80;;;16.17;;
6663;SDS011;58749;48.022;10.922;2022-12-18T02:51:44;31.85;;;16.02;;
6663;SDS011;58749;48.022;10.922;2022-12-18T02:54:20;33.60;;;15.45;;
6663;SDS011;58749;48.022;10.922;2022-12-18T02:56:53;34.65;;;16.25;;
6663;SDS011;58749;48.022;10.922;2022-12-18T02:59:28;33.53;;;15.90;;
6663;SDS011;58749;48.022;10.922;2022-12-18T03:02:06;37.85;;;16.58;;
6663;SDS011;58749;48.022;10.922;2022-12-18T03:04:42;34.17;;;17.20;;
6663;SDS011;58749;48.022;10.922;2022-12-18T03:07:15;30.23;;;15.23;;
6663;SDS011;58749;48.022;10.922;2022-12-18T03:09:48;29.60;;;15.35;;
6663;SDS011;58749;48.022;10.922;2022-12-18T03:12:20;29.30;;;14.88;;
6663;SDS011;58749;48.022;10.922;2022-12-18T03:14:59;29.77;;;15.80;;
6663;SDS011;58749;48.022;10.922;2022-12-18T03:17:31;30.23;;;16.30;;
6663;SDS011;58749;48.022;10.922;2022-12-18T03:20:02;29.58;;;15.07;;
6663;SDS011;58749;48.022;10.922;2022-12-18T03:22:33;33.85;;;16.90;;
6663;SDS011;58749;48.022;10.922;2022-12-18T03:25:05;30.48;;;16.10;;
6663;SDS011;58749;48.022;10.922;2022-12-18T03:30:08;30.80;;;15.57;;
6663;SDS011;58749;48.022;10.922;2022-12-18T03:32:40;32.22;;;16.00;;
6663;SDS011;58749;48.022;10.922;2022-12-18T03:37:41;33.30;;;15.82;;
6663;SDS011;58749;48.022;10.922;2022-12-18T03:40:09;29.52;;;15.25;;
6663;SDS011;58749;48.022;10.922;2022-12-18T03:42:39;29.42;;;14.55;;
6663;SDS011;58749;48.022;10.922;2022-12-18T03:45:19;31.10;;;14.63;;
6663;SDS011;58749;48.022;10.922;2022-12-18T03:47:53;29.85;;;14.98;;
6663;SDS011;58749;48.022;10.922;2022-12-18T03:50:30;30.63;;;15.38;;
6663;SDS011;58749;48.022;10.922;2022-12-18T03:53:07;31.67;;;15.45;;
6663;SDS011;58749;48.022;10.922;2022-12-18T03:55:44;34.05;;;15.55;;
6663;SDS011;58749;48.022;10.922;2022-12-18T03:58:15;29.70;;;15.10;;
6663;SDS011;58749;48.022;10.922;2022-12-18T04:00:49;30.23;;;13.93;;
6663;SDS011;58749;48.022;10.922;2022-12-18T04:03:19;31.55;;;15.50;;
6663;SDS011;58749;48.022;10.922;2022-12-18T04:05:52;31.25;;;14.45;;
6663;SDS011;58749;48.022;10.922;2022-12-18T04:08:22;33.20;;;14.88;;
6663;SDS011;58749;48.022;10.922;2022-12-18T04:10:51;29.20;;;14.85;;
6663;SDS011;58749;48.022;10.922;2022-12-18T04:13:23;30.30;;;15.25;;
6663;SDS011;58749;48.022;10.922;2022-12-18T04:15:53;30.45;;;14.85;;
6663;SDS011;58749;48.022;10.922;2022-12-18T04:18:21;29.40;;;14.88;;
6663;SDS011;58749;48.022;10.922;2022-12-18T04:20:49;32.22;;;15.65;;
6663;SDS011;58749;48.022;10.922;2022-12-18T04:23:17;33.33;;;15.38;;
6663;SDS011;58749;48.022;10.922;2022-12-18T04:25:45;30.27;;;14.73;;
6663;SDS011;58749;48.022;10.922;2022-12-18T04:28:14;30.50;;;14.80;;
6663;SDS011;58749;48.022;10.922;2022-12-18T04:30:42;27.48;;;13.88;;
6663;SDS011;58749;48.022;10.922;2022-12-18T04:33:12;29.45;;;14.32;;
6663;SDS011;58749;48.022;10.922;2022-12-18T04:35:41;30.63;;;14.57;;
6663;SDS011;58749;48.022;10.922;2022-12-18T04:38:09;30.73;;;14.73;;
6663;SDS011;58749;48.022;10.922;2022-12-18T04:40:37;32.17;;;15.35;;
6663;SDS011;58749;48.022;10.922;2022-12-18T04:43:07;35.38;;;14.15;;
6663;SDS011;58749;48.022;10.922;2022-12-18T04:45:35;32.17;;;15.15;;
6663;SDS011;58749;48.022;10.922;2022-12-18T04:48:03;34.58;;;16.95;;
6663;SDS011;58749;48.022;10.922;2022-12-18T04:50:33;35.85;;;16.20;;
6663;SDS011;58749;48.022;10.922;2022-12-18T04:53:01;31.92;;;15.25;;
6663;SDS011;58749;48.022;10.922;2022-12-18T04:55:29;33.22;;;16.08;;
6663;SDS011;58749;48.022;10.922;2022-12-18T04:57:57;32.58;;;16.08;;
6663;SDS011;58749;48.022;10.922;2022-12-18T05:00:25;30.38;;;14.23;;
6663;SDS011;58749;48.022;10.922;2022-12-18T05:02:53;33.58;;;15.43;;
6663;SDS011;58749;48.022;10.922;2022-12-18T05:05:21;34.33;;;15.38;;
6663;SDS011;58749;48.022;10.922;2022-12-18T05:07:50;28.02;;;13.13;;
6663;SDS011;58749;48.022;10.922;2022-12-18T05:10:18;31.67;;;14.90;;
6663;SDS011;58749;48.022;10.922;2022-12-18T05:12:46;29.77;;;15.35;;
6663;SDS011;58749;48.022;10.922;2022-12-18T05:15:27;36.13;;;16.60;;
6663;SDS011;58749;48.022;10.922;2022-12-18T05:17:56;32.78;;;15.98;;
6663;SDS011;58749;48.022;10.922;2022-12-18T05:20:25;30.00;;;15.18;;
6663;SDS011;58749;48.022;10.922;2022-12-18T05:22:55;32.30;;;15.57;;
6663;SDS011;58749;48.022;10.922;2022-12-18T05:25:24;32.40;;;15.25;;
6663;SDS011;58749;48.022;10.922;2022-12-18T05:27:51;30.00;;;14.98;;
6663;SDS011;58749;48.022;10.922;2022-12-18T05:30:19;29.85;;;14.43;;
6663;SDS011;58749;48.022;10.922;2022-12-18T05:32:48;33.08;;;15.07;;
6663;SDS011;58749;48.022;10.922;2022-12-18T05:35:16;33.38;;;16.15;;
6663;SDS011;58749;48.022;10.922;2022-12-18T05:37:45;32.97;;;15.48;;
6663;SDS011;58749;48.022;10.922;2022-12-18T05:40:17;33.10;;;15.23;;
6663;SDS011;58749;48.022;10.922;2022-12-18T05:42:45;30.20;;;14.30;;
6663;SDS011;58749;48.022;10.922;2022-12-18T05:45:13;33.35;;;16.80;;
6663;SDS011;58749;48.022;10.922;2022-12-18T05:47:41;28.65;;;14.82;;
6663;SDS011;58749;48.022;10.922;2022-12-18T05:50:09;30.63;;;15.70;;
6663;SDS011;58749;48.022;10.922;2022-12-18T05:52:37;36.33;;;16.80;;
6663;SDS011;58749;48.022;10.922;2022-12-18T05:55:04;33.20;;;16.08;;
6663;SDS011;58749;48.022;10.922;2022-12-18T05:57:34;32.50;;;15.35;;
6663;SDS011;58749;48.022;10.922;2022-12-18T06:00:02;34.20;;;15.35;;
6663;SDS011;58749;48.022;10.922;2022-12-18T06:02:31;33.55;;;15.63;;
6663;SDS011;58749;48.022;10.922;2022-12-18T06:04:59;35.70;;;16.35;;
6663;SDS011;58749;48.022;10.922;2022-12-18T06:07:27;31.92;;;15.35;;
6663;SDS011;58749;48.022;10.922;2022-12-18T06:09:55;34.72;;;17.40;;
6663;SDS011;58749;48.022;10.922;2022-12-18T06:12:23;33.75;;;15.18;;
6663;SDS011;58749;48.022;10.922;2022-12-18T06:14:52;31.10;;;14.95;;
6663;SDS011;58749;48.022;10.922;2022-12-18T06:17:20;32.55;;;15.98;;
6663;SDS011;58749;48.022;10.922;2022-12-18T06:19:48;33.90;;;16.70;;
6663;SDS011;58749;48.022;10.922;2022-12-18T06:22:17;34.63;;;16.83;;
6663;SDS011;58749;48.022;10.922;2022-12-18T06:24:45;31.60;;;15.75;;
6663;SDS011;58749;48.022;10.922;2022-12-18T06:27:14;29.13;;;14.45;;
6663;SDS011;58749;48.022;10.922;2022-12-18T06:29:42;27.25;;;13.15;;
6663;SDS011;58749;48.022;10.922;2022-12-18T06:32:11;32.95;;;15.57;;
6663;SDS011;58749;48.022;10.922;2022-12-18T06:34:39;29.77;;;14.02;;
6663;SDS011;58749;48.022;10.922;2022-12-18T06:37:07;29.55;;;14.00;;
6663;SDS011;58749;48.022;10.922;2022-12-18T06:39:35;34.25;;;14.52;;
6663;SDS011;58749;48.022;10.922;2022-12-18T06:42:04;28.30;;;14.02;;
6663;SDS011;58749;48.022;10.922;2022-12-18T06:44:32;34.72;;;16.02;;
6663;SDS011;58749;48.022;10.922;2022-12-18T06:47:00;32.83;;;16.63;;
6663;SDS011;58749;48.022;10.922;2022-12-18T06:49:29;31.50;;;15.85;;
6663;SDS011;58749;48.022;10.922;2022-12-18T06:51:57;30.65;;;15.25;;
6663;SDS011;58749;48.022;10.922;2022-12-18T06:54:25;34.83;;;15.50;;
6663;SDS011;58749;48.022;10.922;2022-12-18T06:56:53;33.50;;;14.85;;
6663;SDS011;58749;48.022;10.922;2022-12-18T06:59:21;31.17;;;13.93;;
6663;SDS011;58749;48.022;10.922;2022-12-18T07:01:49;28.77;;;15.00;;
6663;SDS011;58749;48.022;10.922;2022-12-18T07:04:18;32.75;;;15.65;;
6663;SDS011;58749;48.022;10.922;2022-12-18T07:06:47;32.88;;;15.93;;
6663;SDS011;58749;48.022;10.922;2022-12-18T07:09:15;29.48;;;14.18;;
6663;SDS011;58749;48.022;10.922;2022-12-18T07:11:43;32.85;;;14.55;;
6663;SDS011;58749;48.022;10.922;2022-12-18T07:14:11;28.80;;;13.88;;
6663;SDS011;58749;48.022;10.922;2022-12-18T07:16:39;28.70;;;14.10;;
6663;SDS011;58749;48.022;10.922;2022-12-18T07:19:07;32.30;;;15.40;;
6663;SDS011;58749;48.022;10.922;2022-12-18T07:21:35;33.30;;;14.05;;
6663;SDS011;58749;48.022;10.922;2022-12-18T07:24:05;33.75;;;15.02;;
6663;SDS011;58749;48.022;10.922;2022-12-18T07:26:33;31.63;;;14.38;;
6663;SDS011;58749;48.022;10.922;2022-12-18T07:29:01;32.55;;;15.32;;
6663;SDS011;58749;48.022;10.922;2022-12-18T07:31:29;32.35;;;15.50;;
6663;SDS011;58749;48.022;10.922;2022-12-18T07:33:57;29.08;;;15.15;;
6663;SDS011;58749;48.022;10.922;2022-12-18T07:36:26;30.17;;;13.95;;
6663;SDS011;58749;48.022;10.922;2022-12-18T07:38:54;30.23;;;14.15;;
6663;SDS011;58749;48.022;10.922;2022-12-18T07:41:23;28.55;;;14.10;;
6663;SDS011;58749;48.022;10.922;2022-12-18T07:43:51;32.35;;;15.23;;
6663;SDS011;58749;48.022;10.922;2022-12-18T07:46:19;32.05;;;14.32;;
6663;SDS011;58749;48.022;10.922;2022-12-18T07:48:47;32.83;;;15.75;;
6663;SDS011;58749;48.022;10.922;2022-12-18T07:51:16;29.42;;;13.80;;
6663;SDS011;58749;48.022;10.922;2022-12-18T07:53:45;34.78;;;16.13;;
6663;SDS011;58749;48.022;10.922;2022-12-18T07:58:56;32.70;;;14.25;;
6663;SDS011;58749;48.022;10.922;2022-12-18T08:01:25;30.05;;;13.65;;
6663;SDS011;58749;48.022;10.922;2022-12-18T08:03:54;30.02;;;14.20;;
6663;SDS011;58749;48.022;10.922;2022-12-18T08:06:22;30.90;;;13.38;;
6663;SDS011;58749;48.022;10.922;2022-12-18T08:08:50;33.78;;;13.98;;
6663;SDS011;58749;48.022;10.922;2022-12-18T08:11:19;31.70;;;14.50;;
6663;SDS011;58749;48.022;10.922;2022-12-18T08:13:47;30.33;;;14.48;;
6663;SDS011;58749;48.022;10.922;2022-12-18T08:16:17;28.55;;;13.63;;
6663;SDS011;58749;48.022;10.922;2022-12-18T08:18:46;28.52;;;13.15;;
6663;SDS011;58749;48.022;10.922;2022-12-18T08:21:15;32.45;;;14.30;;
6663;SDS011;58749;48.022;10.922;2022-12-18T08:23:46;30.65;;;14.88;;
6663;SDS011;58749;48.022;10.922;2022-12-18T08:26:17;33.35;;;15.25;;
6663;SDS011;58749;48.022;10.922;2022-12-18T08:28:46;27.05;;;13.43;;
6663;SDS011;58749;48.022;10.922;2022-12-18T08:31:17;28.75;;;14.13;;
6663;SDS011;58749;48.022;10.922;2022-12-18T08:33:47;33.28;;;14.05;;
6663;SDS011;58749;48.022;10.922;2022-12-18T08:36:16;29.63;;;13.55;;
6663;SDS011;58749;48.022;10.922;2022-12-18T08:38:44;28.27;;;12.98;;
6663;SDS011;58749;48.022;10.922;2022-12-18T08:41:14;28.83;;;13.23;;
6663;SDS011;58749;48.022;10.922;2022-12-18T08:43:43;26.88;;;12.75;;
6663;SDS011;58749;48.022;10.922;2022-12-18T08:46:32;29.52;;;13.55;;
6663;SDS011;58749;48.022;10.922;2022-12-18T08:49:03;30.27;;;13.68;;
6663;SDS011;58749;48.022;10.922;2022-12-18T08:51:31;26.25;;;12.18;;
6663;SDS011;58749;48.022;10.922;2022-12-18T08:54:00;27.98;;;13.02;;
6663;SDS011;58749;48.022;10.922;2022-12-18T08:56:29;31.40;;;13.52;;
6663;SDS011;58749;48.022;10.922;2022-12-18T08:58:57;29.20;;;12.65;;
6663;SDS011;58749;48.022;10.922;2022-12-18T09:01:26;32.30;;;13.93;;
6663;SDS011;58749;48.022;10.922;2022-12-18T09:03:56;27.73;;;14.00;;
6663;SDS011;58749;48.022;10.922;2022-12-18T09:06:24;28.23;;;13.38;;
6663;SDS011;58749;48.022;10.922;2022-12-18T09:08:52;40.85;;;18.42;;
6663;SDS011;58749;48.022;10.922;2022-12-18T09:11:21;34.85;;;15.00;;
6663;SDS011;58749;48.022;10.922;2022-12-18T09:13:51;31.13;;;14.55;;
6663;SDS011;58749;48.022;10.922;2022-12-18T09:16:21;35.97;;;16.02;;
6663;SDS011;58749;48.022;10.922;2022-12-18T09:18:58;35.95;;;16.63;;
6663;SDS011;58749;48.022;10.922;2022-12-18T09:21:27;37.63;;;17.73;;
6663;SDS011;58749;48.022;10.922;2022-12-18T09:23:57;31.92;;;15.23;;
6663;SDS011;58749;48.022;10.922;2022-12-18T09:26:26;31.85;;;14.98;;
6663;SDS011;58749;48.022;10.922;2022-12-18T09:28:54;32.17;;;15.02;;
6663;SDS011;58749;48.022;10.922;2022-12-18T09:31:23;31.08;;;14.23;;
6663;SDS011;58749;48.022;10.922;2022-12-18T09:33:51;32.28;;;15.43;;
6663;SDS011;58749;48.022;10.922;2022-12-18T09:36:20;26.85;;;13.68;;
6663;SDS011;58749;48.022;10.922;2022-12-18T09:38:48;30.42;;;15.95;;
6663;SDS011;58749;48.022;10.922;2022-12-18T09:41:30;32.63;;;14.82;;
6663;SDS011;58749;48.022;10.922;2022-12-18T09:44:10;29.50;;;13.80;;
6663;SDS011;58749;48.022;10.922;2022-12-18T09:46:50;29.50;;;14.38;;
6663;SDS011;58749;48.022;10.922;2022-12-18T09:49:25;24.27;;;13.85;;
6663;SDS011;58749;48.022;10.922;2022-12-18T09:52:00;26.27;;;13.13;;
6663;SDS011;58749;48.022;10.922;2022-12-18T09:54:32;32.28;;;13.35;;
6663;SDS011;58749;48.022;10.922;2022-12-18T09:57:05;26.83;;;12.50;;
6663;SDS011;58749;48.022;10.922;2022-12-18T09:59:34;30.75;;;14.63;;
6663;SDS011;58749;48.022;10.922;2022-12-18T10:02:16;27.83;;;13.90;;
6663;SDS011;58749;48.022;10.922;2022-12-18T10:04:49;27.20;;;12.70;;
6663;SDS011;58749;48.022;10.922;2022-12-18T10:07:29;30.33;;;13.82;;
6663;SDS011;58749;48.022;10.922;2022-12-18T10:10:27;30.15;;;14.48;;
6663;SDS011;58749;48.022;10.922;2022-12-18T10:13:02;27.40;;;14.20;;
6663;SDS011;58749;48.022;10.922;2022-12-18T10:15:45;30.25;;;12.65;;
6663;SDS011;58749;48.022;10.922;2022-12-18T10:18:31;27.90;;;14.00;;
6663;SDS011;58749;48.022;10.922;2022-12-18T10:21:39;28.90;;;14.13;;
6663;SDS011;58749;48.022;10.922;2022-12-18T10:24:16;26.77;;;13.25;;
6663;SDS011;58749;48.022;10.922;2022-12-18T10:26:48;23.88;;;12.40;;
6663;SDS011;58749;48.022;10.922;2022-12-18T10:29:16;25.95;;;13.88;;
6663;SDS011;58749;48.022;10.922;2022-12-18T10:31:44;28.08;;;13.40;;
6663;SDS011;58749;48.022;10.922;2022-12-18T10:34:12;28.45;;;13.13;;
6663;SDS011;58749;48.022;10.922;2022-12-18T10:36:41;31.23;;;14.10;;
6663;SDS011;58749;48.022;10.922;2022-12-18T10:39:18;33.13;;;14.05;;
6663;SDS011;58749;48.022;10.922;2022-12-18T10:41:48;28.80;;;15.50;;
6663;SDS011;58749;48.022;10.922;2022-12-18T10:44:17;29.70;;;14.85;;
6663;SDS011;58749;48.022;10.922;2022-12-18T10:46:46;26.58;;;13.05;;
6663;SDS011;58749;48.022;10.922;2022-12-18T10:49:18;29.73;;;14.27;;
6663;SDS011;58749;48.022;10.922;2022-12-18T10:54:21;30.98;;;13.68;;
6663;SDS011;58749;48.022;10.922;2022-12-18T10:56:50;29.40;;;14.63;;
6663;SDS011;58749;48.022;10.922;2022-12-18T10:59:19;34.30;;;16.80;;
6663;SDS011;58749;48.022;10.922;2022-12-18T11:01:48;29.55;;;14.07;;
6663;SDS011;58749;48.022;10.922;2022-12-18T11:04:19;33.05;;;14.77;;
6663;SDS011;58749;48.022;10.922;2022-12-18T11:06:53;43.10;;;18.40;;
6663;SDS011;58749;48.022;10.922;2022-12-18T11:09:25;38.85;;;14.95;;
6663;SDS011;58749;48.022;10.922;2022-12-18T11:11:54;32.60;;;15.43;;
6663;SDS011;58749;48.022;10.922;2022-12-18T11:14:26;38.28;;;17.00;;
6663;SDS011;58749;48.022;10.922;2022-12-18T11:16:56;33.08;;;15.80;;
6663;SDS011;58749;48.022;10.922;2022-12-18T11:19:45;32.80;;;15.95;;
6663;SDS011;58749;48.022;10.922;2022-12-18T11:22:20;29.42;;;14.90;;
6663;SDS011;58749;48.022;10.922;2022-12-18T11:24:54;30.42;;;14.82;;
6663;SDS011;58749;48.022;10.922;2022-12-18T11:27:49;30.88;;;15.57;;
6663;SDS011;58749;48.022;10.922;2022-12-18T11:30:23;32.67;;;14.30;;
6663;SDS011;58749;48.022;10.922;2022-12-18T11:32:58;28.58;;;13.85;;
6663;SDS011;58749;48.022;10.922;2022-12-18T11:35:37;33.58;;;15.40;;
6663;SDS011;58749;48.022;10.922;2022-12-18T11:38:17;34.92;;;14.10;;
6663;SDS011;58749;48.022;10.922;2022-12-18T11:40:52;28.48;;;13.20;;
6663;SDS011;58749;48.022;10.922;2022-12-18T11:43:25;35.38;;;14.73;;
6663;SDS011;58749;48.022;10.922;2022-12-18T11:45:59;31.55;;;14.35;;
6663;SDS011;58749;48.022;10.922;2022-12-18T11:48:30;27.85;;;13.85;;
6663;SDS011;58749;48.022;10.922;2022-12-18T11:51:01;31.38;;;13.98;;
6663;SDS011;58749;48.022;10.922;2022-12-18T11:53:32;28.70;;;13.07;;
6663;SDS011;58749;48.022;10.922;2022-12-18T11:56:08;29.95;;;14.48;;
6663;SDS011;58749;48.022;10.922;2022-12-18T11:58:55;30.92;;;14.20;;
6663;SDS011;58749;48.022;10.922;2022-12-18T12:01:34;32.00;;;14.05;;
6663;SDS011;58749;48.022;10.922;2022-12-18T12:04:15;31.00;;;14.73;;
6663;SDS011;58749;48.022;10.922;2022-12-18T12:07:07;29.42;;;14.30;;
6663;SDS011;58749;48.022;10.922;2022-12-18T12:09:48;33.63;;;15.88;;
6663;SDS011;58749;48.022;10.922;2022-12-18T12:12:26;29.88;;;13.73;;
6663;SDS011;58749;48.022;10.922;2022-12-18T12:15:17;32.88;;;15.43;;
6663;SDS011;58749;48.022;10.922;2022-12-18T12:17:54;33.15;;;15.02;;
6663;SDS011;58749;48.022;10.922;2022-12-18T12:20:38;27.55;;;14.15;;
6663;SDS011;58749;48.022;10.922;2022-12-18T12:23:14;30.98;;;14.55;;
6663;SDS011;58749;48.022;10.922;2022-12-18T12:25:55;27.88;;;13.20;;
6663;SDS011;58749;48.022;10.922;2022-12-18T12:28:35;33.05;;;14.18;;
6663;SDS011;58749;48.022;10.922;2022-12-18T12:31:31;29.58;;;13.27;;
6663;SDS011;58749;48.022;10.922;2022-12-18T12:34:14;26.02;;;13.38;;
6663;SDS011;58749;48.022;10.922;2022-12-18T12:36:50;31.75;;;15.60;;
6663;SDS011;58749;48.022;10.922;2022-12-18T12:39:29;28.27;;;14.15;;
6663;SDS011;58749;48.022;10.922;2022-12-18T12:42:02;29.98;;;14.43;;
6663;SDS011;58749;48.022;10.922;2022-12-18T12:44:53;31.23;;;14.00;;
6663;SDS011;58749;48.022;10.922;2022-12-18T12:49:53;29.02;;;13.73;;
6663;SDS011;58749;48.022;10.922;2022-12-18T12:52:26;29.08;;;14.05;;
6663;SDS011;58749;48.022;10.922;2022-12-18T12:54:57;28.48;;;13.88;;
6663;SDS011;58749;48.022;10.922;2022-12-18T12:57:30;29.67;;;14.48;;
6663;SDS011;58749;48.022;10.922;2022-12-18T13:00:05;29.73;;;13.15;;
6663;SDS011;58749;48.022;10.922;2022-12-18T13:02:42;24.30;;;12.35;;
6663;SDS011;58749;48.022;10.922;2022-12-18T13:05:20;29.45;;;13.80;;
6663;SDS011;58749;48.022;10.922;2022-12-18T13:07:54;30.98;;;13.48;;
6663;SDS011;58749;48.022;10.922;2022-12-18T13:10:27;29.60;;;13.98;;
6663;SDS011;58749;48.022;10.922;2022-12-18T13:13:01;30.35;;;15.07;;
6663;SDS011;58749;48.022;10.922;2022-12-18T13:15:43;25.20;;;12.43;;
6663;SDS011;58749;48.022;10.922;2022-12-18T13:18:17;28.17;;;13.88;;
6663;SDS011;58749;48.022;10.922;2022-12-18T13:20:47;30.30;;;14.88;;
6663;SDS011;58749;48.022;10.922;2022-12-18T13:23:32;30.90;;;14.45;;
6663;SDS011;58749;48.022;10.922;2022-12-18T13:28:57;28.70;;;13.77;;
6663;SDS011;58749;48.022;10.922;2022-12-18T13:34:43;29.08;;;13.80;;
6663;SDS011;58749;48.022;10.922;2022-12-18T13:43:36;35.85;;;14.77;;
6663;SDS011;58749;48.022;10.922;2022-12-18T13:46:20;27.33;;;13.70;;
6663;SDS011;58749;48.022;10.922;2022-12-18T13:48:51;28.73;;;14.10;;
6663;SDS011;58749;48.022;10.922;2022-12-18T13:51:23;31.20;;;13.82;;
6663;SDS011;58749;48.022;10.922;2022-12-18T13:53:53;28.70;;;14.80;;
6663;SDS011;58749;48.022;10.922;2022-12-18T13:56:24;31.73;;;14.10;;
6663;SDS011;58749;48.022;10.922;2022-12-18T13:59:14;25.88;;;13.25;;
6663;SDS011;58749;48.022;10.922;2022-12-18T14:01:50;28.52;;;13.82;;
6663;SDS011;58749;48.022;10.922;2022-12-18T14:04:25;27.88;;;12.82;;
6663;SDS011;58749;48.022;10.922;2022-12-18T14:06:57;30.05;;;13.40;;
6663;SDS011;58749;48.022;10.922;2022-12-18T14:09:29;31.27;;;13.88;;
6663;SDS011;58749;48.022;10.922;2022-12-18T14:12:02;29.20;;;13.80;;
6663;SDS011;58749;48.022;10.922;2022-12-18T14:14:50;28.48;;;13.20;;
6663;SDS011;58749;48.022;10.922;2022-12-18T14:17:21;26.95;;;13.98;;
6663;SDS011;58749;48.022;10.922;2022-12-18T14:19:51;32.85;;;15.82;;
6663;SDS011;58749;48.022;10.922;2022-12-18T14:22:21;32.70;;;15.38;;
6663;SDS011;58749;48.022;10.922;2022-12-18T14:25:06;29.70;;;14.13;;
6663;SDS011;58749;48.022;10.922;2022-12-18T14:27:42;35.25;;;15.50;;
6663;SDS011;58749;48.022;10.922;2022-12-18T14:30:24;33.75;;;14.95;;
6663;SDS011;58749;48.022;10.922;2022-12-18T14:35:29;30.13;;;14.63;;
6663;SDS011;58749;48.022;10.922;2022-12-18T14:38:10;31.45;;;15.45;;
6663;SDS011;58749;48.022;10.922;2022-12-18T14:40:51;28.52;;;13.93;;
6663;SDS011;58749;48.022;10.922;2022-12-18T14:43:20;27.30;;;13.63;;
6663;SDS011;58749;48.022;10.922;2022-12-18T14:45:48;31.23;;;14.38;;
6663;SDS011;58749;48.022;10.922;2022-12-18T14:48:18;32.65;;;14.35;;
6663;SDS011;58749;48.022;10.922;2022-12-18T14:50:56;29.98;;;13.98;;
6663;SDS011;58749;48.022;10.922;2022-12-18T14:53:31;30.05;;;14.55;;
6663;SDS011;58749;48.022;10.922;2022-12-18T14:56:03;31.55;;;14.90;;
6663;SDS011;58749;48.022;10.922;2022-12-18T14:58:43;30.70;;;13.57;;
6663;SDS011;58749;48.022;10.922;2022-12-18T15:01:19;30.23;;;13.68;;
6663;SDS011;58749;48.022;10.922;2022-12-18T15:03:53;32.15;;;14.52;;
6663;SDS011;58749;48.022;10.922;2022-12-18T15:06:25;32.00;;;13.77;;
6663;SDS011;58749;48.022;10.922;2022-12-18T15:09:00;30.35;;;14.57;;
6663;SDS011;58749;48.022;10.922;2022-12-18T15:11:32;35.80;;;15.57;;
6663;SDS011;58749;48.022;10.922;2022-12-18T15:16:52;33.22;;;16.02;;
6663;SDS011;58749;48.022;10.922;2022-12-18T15:19:22;29.10;;;14.02;;
6663;SDS011;58749;48.022;10.922;2022-12-18T15:21:55;32.55;;;15.90;;